UAL615 KSMF-KSAN
Flight info
| Callsign | UAL615 |
|---|---|
| Flight time | 1h 14m |
| Altitude | 39000 |
| Route | FTHIL3 FRA EHF HUULK COMIX2 |
| Aircraft | B38M/M-SDE1FGHILORVWXY/HB1 |
Departure
| Time | 2026-05-05 02:30 |
|---|---|
| Airport | Sacramento International Airport (KSMF) |
Arrival
| Time | 2026-05-05 03:45 |
|---|---|
| Airport | San Diego International Airport (KSAN) |
| Time | Latitude | Longitude | Altitude | Speed | Heading |
|---|---|---|---|---|---|
| 2026-05-05 02:00 | 38.69507 | -121.59350 | 36 ft | 0 kts | 15° |
| 2026-05-05 02:19 | 38.69505 | -121.59351 | 36 ft | 4 kts | 17° |
| 2026-05-05 02:19 | 38.69480 | -121.59357 | 35 ft | 4 kts | 347° |
| 2026-05-05 02:19 | 38.69462 | -121.59341 | 36 ft | 4 kts | 289° |
| 2026-05-05 02:19 | 38.69460 | -121.59323 | 36 ft | 1 kts | 271° |
| 2026-05-05 02:20 | 38.69460 | -121.59320 | 36 ft | 0 kts | 271° |
| 2026-05-05 02:24 | 38.69460 | -121.59330 | 36 ft | 2 kts | 271° |
| 2026-05-05 02:24 | 38.69461 | -121.59364 | 36 ft | 5 kts | 271° |
| 2026-05-05 02:24 | 38.69462 | -121.59413 | 36 ft | 6 kts | 271° |
| 2026-05-05 02:24 | 38.69462 | -121.59471 | 36 ft | 7 kts | 269° |
| 2026-05-05 02:25 | 38.69462 | -121.59534 | 37 ft | 7 kts | 270° |
| 2026-05-05 02:25 | 38.69469 | -121.59564 | 38 ft | 3 kts | 303° |
| 2026-05-05 02:25 | 38.69527 | -121.59605 | 38 ft | 15 kts | 353° |
| 2026-05-05 02:25 | 38.69643 | -121.59602 | 36 ft | 15 kts | 2° |
| 2026-05-05 02:26 | 38.69694 | -121.59622 | 37 ft | 3 kts | 309° |
| 2026-05-05 02:26 | 38.69698 | -121.59638 | 37 ft | 7 kts | 284° |
| 2026-05-05 02:26 | 38.69702 | -121.59762 | 36 ft | 20 kts | 270° |
| 2026-05-05 02:26 | 38.69720 | -121.59863 | 36 ft | 2 kts | 323° |
| 2026-05-05 02:27 | 38.69725 | -121.59864 | 36 ft | 2 kts | 349° |
| 2026-05-05 02:27 | 38.69803 | -121.59862 | 35 ft | 20 kts | 1° |
| 2026-05-05 02:27 | 38.69996 | -121.59859 | 38 ft | 35 kts | 1° |
| 2026-05-05 02:27 | 38.70216 | -121.59856 | 37 ft | 26 kts | 1° |
| 2026-05-05 02:28 | 38.70403 | -121.59852 | 38 ft | 27 kts | 1° |
| 2026-05-05 02:28 | 38.70590 | -121.59849 | 37 ft | 27 kts | 1° |
| 2026-05-05 02:28 | 38.70703 | -121.59866 | 36 ft | 7 kts | 321° |
| 2026-05-05 02:28 | 38.70716 | -121.59895 | 38 ft | 2 kts | 279° |
| 2026-05-05 02:29 | 38.70719 | -121.59946 | 37 ft | 15 kts | 272° |
| 2026-05-05 02:29 | 38.70698 | -121.60088 | 36 ft | 12 kts | 223° |
| 2026-05-05 02:29 | 38.70636 | -121.60114 | 38 ft | 8 kts | 178° |
| 2026-05-05 02:29 | 38.70295 | -121.60117 | 41 ft | 106 kts | 180° |
| 2026-05-05 02:30 | 38.69261 | -121.60131 | 384 ft | 175 kts | 179° |
| 2026-05-05 02:30 | 38.67914 | -121.60005 | 1574 ft | 212 kts | 163° |
| 2026-05-05 02:30 | 38.66645 | -121.58969 | 3226 ft | 228 kts | 143° |
| 2026-05-05 02:30 | 38.65386 | -121.57622 | 3787 ft | 251 kts | 137° |
| 2026-05-05 02:31 | 38.64344 | -121.55701 | 5024 ft | 267 kts | 120° |
| 2026-05-05 02:31 | 38.63399 | -121.53670 | 6715 ft | 268 kts | 122° |
| 2026-05-05 02:31 | 38.62391 | -121.51611 | 8116 ft | 277 kts | 122° |
| 2026-05-05 02:31 | 38.61345 | -121.49505 | 9511 ft | 284 kts | 121° |
| 2026-05-05 02:32 | 38.60261 | -121.47345 | 10771 ft | 295 kts | 121° |
| 2026-05-05 02:32 | 38.59122 | -121.45104 | 11714 ft | 312 kts | 121° |
| 2026-05-05 02:32 | 38.57909 | -121.42728 | 12754 ft | 325 kts | 120° |
| 2026-05-05 02:32 | 38.56667 | -121.40296 | 13980 ft | 328 kts | 119° |
| 2026-05-05 02:33 | 38.55417 | -121.37843 | 15131 ft | 331 kts | 119° |
| 2026-05-05 02:33 | 38.54147 | -121.35355 | 16207 ft | 337 kts | 119° |
| 2026-05-05 02:33 | 38.52856 | -121.32826 | 17259 ft | 341 kts | 119° |
| 2026-05-05 02:33 | 38.51555 | -121.30279 | 18363 ft | 343 kts | 118° |
| 2026-05-05 02:34 | 38.50241 | -121.27710 | 19255 ft | 347 kts | 118° |
| 2026-05-05 02:34 | 38.48927 | -121.25141 | 20109 ft | 351 kts | 117° |
| 2026-05-05 02:34 | 38.47579 | -121.22508 | 20944 ft | 356 kts | 117° |
| 2026-05-05 02:34 | 38.46208 | -121.19832 | 21783 ft | 361 kts | 117° |
| 2026-05-05 02:35 | 38.44828 | -121.17140 | 22621 ft | 365 kts | 117° |
| 2026-05-05 02:35 | 38.43442 | -121.14439 | 23425 ft | 369 kts | 117° |
| 2026-05-05 02:35 | 38.42023 | -121.11680 | 24121 ft | 374 kts | 117° |
| 2026-05-05 02:35 | 38.40586 | -121.08885 | 24790 ft | 378 kts | 117° |
| 2026-05-05 02:36 | 38.39141 | -121.06074 | 25443 ft | 382 kts | 117° |
| 2026-05-05 02:36 | 38.37676 | -121.03230 | 26085 ft | 385 kts | 117° |
| 2026-05-05 02:36 | 38.36198 | -121.00360 | 26716 ft | 389 kts | 117° |
| 2026-05-05 02:36 | 38.34702 | -120.97458 | 27345 ft | 393 kts | 117° |
| 2026-05-05 02:37 | 38.33194 | -120.94536 | 27941 ft | 397 kts | 117° |
| 2026-05-05 02:37 | 38.31664 | -120.91575 | 28518 ft | 402 kts | 117° |
| 2026-05-05 02:37 | 38.30120 | -120.88588 | 29106 ft | 405 kts | 118° |
| 2026-05-05 02:37 | 38.28579 | -120.85611 | 29710 ft | 409 kts | 118° |
| 2026-05-05 02:38 | 38.27011 | -120.82583 | 30269 ft | 411 kts | 118° |
| 2026-05-05 02:38 | 38.25427 | -120.79529 | 30706 ft | 416 kts | 118° |
| 2026-05-05 02:38 | 38.23823 | -120.76437 | 31156 ft | 419 kts | 118° |
| 2026-05-05 02:38 | 38.22208 | -120.73328 | 31587 ft | 424 kts | 119° |
| 2026-05-05 02:39 | 38.20573 | -120.70181 | 32006 ft | 428 kts | 119° |
| 2026-05-05 02:39 | 38.18921 | -120.67007 | 32439 ft | 432 kts | 119° |
| 2026-05-05 02:39 | 38.17254 | -120.63806 | 32862 ft | 436 kts | 120° |
| 2026-05-05 02:39 | 38.15577 | -120.60586 | 33391 ft | 438 kts | 120° |
| 2026-05-05 02:40 | 38.13889 | -120.57353 | 33826 ft | 441 kts | 121° |
| 2026-05-05 02:40 | 38.12189 | -120.54099 | 34292 ft | 442 kts | 121° |
| 2026-05-05 02:40 | 38.10485 | -120.50840 | 34730 ft | 444 kts | 121° |
| 2026-05-05 02:40 | 38.08777 | -120.47576 | 35167 ft | 445 kts | 121° |
| 2026-05-05 02:41 | 38.06941 | -120.44397 | 35589 ft | 448 kts | 131° |
| 2026-05-05 02:41 | 38.04529 | -120.41880 | 36046 ft | 452 kts | 147° |
| 2026-05-05 02:41 | 38.01737 | -120.40149 | 36484 ft | 454 kts | 155° |
| 2026-05-05 02:41 | 37.98838 | -120.38525 | 36912 ft | 454 kts | 156° |
| 2026-05-05 02:42 | 37.95942 | -120.36938 | 37390 ft | 454 kts | 156° |
| 2026-05-05 02:42 | 37.93030 | -120.35369 | 37848 ft | 454 kts | 157° |
| 2026-05-05 02:42 | 37.90117 | -120.33815 | 38294 ft | 454 kts | 158° |
| 2026-05-05 02:42 | 37.87209 | -120.32270 | 38704 ft | 454 kts | 158° |
| 2026-05-05 02:43 | 37.84290 | -120.30720 | 38972 ft | 456 kts | 158° |
| 2026-05-05 02:43 | 37.78454 | -120.27626 | 39019 ft | 452 kts | 158° |
| 2026-05-05 02:44 | 37.72663 | -120.24562 | 39019 ft | 451 kts | 158° |
| 2026-05-05 02:44 | 37.66911 | -120.21523 | 39018 ft | 451 kts | 158° |
| 2026-05-05 02:45 | 37.61126 | -120.18472 | 39014 ft | 450 kts | 159° |
| 2026-05-05 02:45 | 37.55332 | -120.15421 | 39016 ft | 451 kts | 159° |
| 2026-05-05 02:46 | 37.49539 | -120.12376 | 39011 ft | 451 kts | 159° |
| 2026-05-05 02:46 | 37.43762 | -120.09345 | 39011 ft | 449 kts | 159° |
| 2026-05-05 02:47 | 37.37999 | -120.06326 | 39012 ft | 448 kts | 159° |
| 2026-05-05 02:47 | 37.32234 | -120.03311 | 39014 ft | 448 kts | 159° |
| 2026-05-05 02:48 | 37.26477 | -120.00306 | 39011 ft | 447 kts | 160° |
| 2026-05-05 02:48 | 37.20730 | -119.97310 | 39011 ft | 447 kts | 160° |
| 2026-05-05 02:49 | 37.15013 | -119.94335 | 39013 ft | 447 kts | 160° |
| 2026-05-05 02:49 | 37.09262 | -119.91347 | 39007 ft | 446 kts | 160° |
| 2026-05-05 02:50 | 37.03540 | -119.88380 | 39006 ft | 445 kts | 160° |
| 2026-05-05 02:50 | 36.97827 | -119.85421 | 39009 ft | 445 kts | 160° |
| 2026-05-05 02:51 | 36.92105 | -119.82462 | 39000 ft | 444 kts | 161° |
| 2026-05-05 02:51 | 36.86441 | -119.79539 | 39006 ft | 438 kts | 161° |
| 2026-05-05 02:52 | 36.80801 | -119.76633 | 39007 ft | 438 kts | 161° |
| 2026-05-05 02:52 | 36.75159 | -119.73731 | 39008 ft | 439 kts | 161° |
| 2026-05-05 02:53 | 36.69513 | -119.70830 | 39008 ft | 438 kts | 161° |
| 2026-05-05 02:53 | 36.63869 | -119.67936 | 39008 ft | 438 kts | 161° |
| 2026-05-05 02:54 | 36.58260 | -119.65063 | 39010 ft | 439 kts | 161° |
| 2026-05-05 02:54 | 36.52618 | -119.62179 | 39001 ft | 437 kts | 161° |
| 2026-05-05 02:55 | 36.46997 | -119.59310 | 39003 ft | 436 kts | 161° |
| 2026-05-05 02:55 | 36.41368 | -119.56442 | 39000 ft | 436 kts | 161° |
| 2026-05-05 02:56 | 36.35749 | -119.53582 | 38979 ft | 436 kts | 162° |
| 2026-05-05 02:56 | 36.30174 | -119.50750 | 38995 ft | 431 kts | 162° |
| 2026-05-05 02:57 | 36.24629 | -119.47937 | 39000 ft | 431 kts | 162° |
| 2026-05-05 02:57 | 36.20019 | -119.45602 | 39001 ft | 431 kts | 162° |
| 2026-05-05 02:58 | 36.14465 | -119.42793 | 39002 ft | 430 kts | 162° |
| 2026-05-05 02:58 | 36.08930 | -119.39998 | 39004 ft | 430 kts | 162° |
| 2026-05-05 02:59 | 36.03389 | -119.37203 | 39003 ft | 430 kts | 162° |
| 2026-05-05 02:59 | 35.97850 | -119.34415 | 38991 ft | 430 kts | 162° |
| 2026-05-05 03:00 | 35.92306 | -119.31627 | 39027 ft | 430 kts | 162° |
| 2026-05-05 03:00 | 35.86795 | -119.28861 | 39000 ft | 430 kts | 162° |
| 2026-05-05 03:01 | 35.81247 | -119.26080 | 38992 ft | 430 kts | 162° |
| 2026-05-05 03:01 | 35.75696 | -119.23302 | 38990 ft | 427 kts | 163° |
| 2026-05-05 03:02 | 35.70189 | -119.20549 | 38988 ft | 427 kts | 163° |
| 2026-05-05 03:02 | 35.64685 | -119.17802 | 38989 ft | 427 kts | 163° |
| 2026-05-05 03:03 | 35.59175 | -119.15056 | 38976 ft | 427 kts | 163° |
| 2026-05-05 03:03 | 35.53694 | -119.12329 | 38983 ft | 427 kts | 163° |
| 2026-05-05 03:04 | 35.48193 | -119.09527 | 38982 ft | 429 kts | 161° |
| 2026-05-05 03:04 | 35.42764 | -119.06463 | 38981 ft | 429 kts | 161° |
| 2026-05-05 03:05 | 35.37326 | -119.03429 | 38979 ft | 430 kts | 162° |
| 2026-05-05 03:05 | 35.31874 | -119.00395 | 38980 ft | 430 kts | 162° |
| 2026-05-05 03:06 | 35.26457 | -118.97385 | 38976 ft | 430 kts | 162° |
| 2026-05-05 03:06 | 35.21013 | -118.94364 | 38954 ft | 429 kts | 163° |
| 2026-05-05 03:07 | 35.15605 | -118.91368 | 38980 ft | 427 kts | 162° |
| 2026-05-05 03:07 | 35.10174 | -118.88364 | 38981 ft | 427 kts | 162° |
| 2026-05-05 03:08 | 35.04761 | -118.85373 | 38983 ft | 427 kts | 162° |
| 2026-05-05 03:08 | 34.99345 | -118.82386 | 38979 ft | 427 kts | 163° |
| 2026-05-05 03:09 | 34.93931 | -118.79405 | 38981 ft | 426 kts | 163° |
| 2026-05-05 03:09 | 34.88522 | -118.76431 | 38986 ft | 426 kts | 163° |
| 2026-05-05 03:10 | 34.83120 | -118.73463 | 38999 ft | 426 kts | 163° |
| 2026-05-05 03:10 | 34.77707 | -118.70494 | 38997 ft | 426 kts | 163° |
| 2026-05-05 03:11 | 34.72301 | -118.67542 | 38956 ft | 424 kts | 164° |
| 2026-05-05 03:11 | 34.66936 | -118.64602 | 39005 ft | 425 kts | 163° |
| 2026-05-05 03:12 | 34.61553 | -118.61659 | 38999 ft | 423 kts | 164° |
| 2026-05-05 03:12 | 34.56294 | -118.58288 | 39008 ft | 430 kts | 158° |
| 2026-05-05 03:13 | 34.51119 | -118.54619 | 39005 ft | 430 kts | 158° |
| 2026-05-05 03:13 | 34.45954 | -118.50939 | 39015 ft | 430 kts | 158° |
| 2026-05-05 03:14 | 34.40792 | -118.47265 | 39010 ft | 431 kts | 159° |
| 2026-05-05 03:14 | 34.35621 | -118.43589 | 39028 ft | 431 kts | 159° |
| 2026-05-05 03:15 | 34.30443 | -118.39913 | 39029 ft | 431 kts | 159° |
| 2026-05-05 03:15 | 34.27901 | -118.38110 | 38691 ft | 426 kts | 159° |
| 2026-05-05 03:15 | 34.25342 | -118.36297 | 37997 ft | 424 kts | 160° |
| 2026-05-05 03:15 | 34.22814 | -118.34505 | 37502 ft | 418 kts | 160° |
| 2026-05-05 03:16 | 34.20320 | -118.32741 | 37099 ft | 411 kts | 161° |
| 2026-05-05 03:16 | 34.17863 | -118.31005 | 36626 ft | 406 kts | 161° |
| 2026-05-05 03:16 | 34.15433 | -118.29288 | 36118 ft | 403 kts | 161° |
| 2026-05-05 03:16 | 34.13021 | -118.27585 | 35619 ft | 399 kts | 162° |
| 2026-05-05 03:17 | 34.10641 | -118.25904 | 35118 ft | 395 kts | 162° |
| 2026-05-05 03:17 | 34.08278 | -118.24236 | 34686 ft | 390 kts | 163° |
| 2026-05-05 03:17 | 34.05948 | -118.22596 | 34249 ft | 387 kts | 163° |
| 2026-05-05 03:17 | 34.03633 | -118.20966 | 33701 ft | 384 kts | 164° |
| 2026-05-05 03:18 | 34.01334 | -118.19347 | 33199 ft | 380 kts | 164° |
| 2026-05-05 03:18 | 33.99067 | -118.17752 | 32763 ft | 375 kts | 163° |
| 2026-05-05 03:18 | 33.96860 | -118.16200 | 32362 ft | 370 kts | 163° |
| 2026-05-05 03:18 | 33.94646 | -118.14644 | 31920 ft | 365 kts | 163° |
| 2026-05-05 03:19 | 33.90302 | -118.11595 | 31090 ft | 358 kts | 163° |
| 2026-05-05 03:19 | 33.88166 | -118.10097 | 30662 ft | 354 kts | 163° |
| 2026-05-05 03:19 | 33.86044 | -118.08609 | 30265 ft | 351 kts | 163° |
| 2026-05-05 03:20 | 33.83929 | -118.07178 | 29774 ft | 346 kts | 165° |
| 2026-05-05 03:20 | 33.81823 | -118.05789 | 29283 ft | 343 kts | 165° |
| 2026-05-05 03:20 | 33.79753 | -118.04417 | 28963 ft | 337 kts | 165° |
| 2026-05-05 03:20 | 33.77720 | -118.03069 | 28619 ft | 332 kts | 164° |
| 2026-05-05 03:21 | 33.75702 | -118.01734 | 28257 ft | 339 kts | 164° |
| 2026-05-05 03:21 | 33.73625 | -118.00357 | 27921 ft | 343 kts | 163° |
| 2026-05-05 03:21 | 33.71524 | -117.98963 | 27547 ft | 346 kts | 163° |
| 2026-05-05 03:21 | 33.69418 | -117.97568 | 27178 ft | 346 kts | 162° |
| 2026-05-05 03:22 | 33.67309 | -117.96172 | 26828 ft | 346 kts | 162° |
| 2026-05-05 03:22 | 33.65202 | -117.94778 | 26461 ft | 345 kts | 162° |
| 2026-05-05 03:22 | 33.63103 | -117.93390 | 26085 ft | 344 kts | 162° |
| 2026-05-05 03:22 | 33.61008 | -117.92006 | 25734 ft | 343 kts | 161° |
| 2026-05-05 03:23 | 33.58919 | -117.90626 | 25384 ft | 343 kts | 161° |
| 2026-05-05 03:23 | 33.56835 | -117.89251 | 25028 ft | 342 kts | 161° |
| 2026-05-05 03:23 | 33.54752 | -117.87867 | 24669 ft | 342 kts | 160° |
| 2026-05-05 03:23 | 33.52682 | -117.86455 | 24270 ft | 342 kts | 159° |
| 2026-05-05 03:24 | 33.50622 | -117.85052 | 23938 ft | 339 kts | 159° |
| 2026-05-05 03:24 | 33.48577 | -117.83663 | 23593 ft | 336 kts | 159° |
| 2026-05-05 03:24 | 33.46575 | -117.82304 | 23196 ft | 333 kts | 159° |
| 2026-05-05 03:24 | 33.44574 | -117.80936 | 22836 ft | 331 kts | 156° |
| 2026-05-05 03:25 | 33.42750 | -117.79182 | 22395 ft | 339 kts | 146° |
| 2026-05-05 03:25 | 33.41019 | -117.77311 | 22094 ft | 332 kts | 147° |
| 2026-05-05 03:25 | 33.39298 | -117.75474 | 21772 ft | 330 kts | 147° |
| 2026-05-05 03:25 | 33.37566 | -117.73624 | 21444 ft | 335 kts | 146° |
| 2026-05-05 03:26 | 33.35816 | -117.71755 | 21099 ft | 339 kts | 146° |
| 2026-05-05 03:26 | 33.34078 | -117.69899 | 20766 ft | 338 kts | 146° |
| 2026-05-05 03:26 | 33.32304 | -117.68006 | 20419 ft | 336 kts | 146° |
| 2026-05-05 03:26 | 33.30582 | -117.66169 | 20084 ft | 335 kts | 145° |
| 2026-05-05 03:27 | 33.28853 | -117.64326 | 19748 ft | 331 kts | 145° |
| 2026-05-05 03:27 | 33.27137 | -117.62498 | 19406 ft | 328 kts | 145° |
| 2026-05-05 03:27 | 33.25440 | -117.60693 | 19038 ft | 326 kts | 145° |
| 2026-05-05 03:27 | 33.23712 | -117.58873 | 18375 ft | 334 kts | 144° |
| 2026-05-05 03:28 | 33.21961 | -117.57027 | 17763 ft | 337 kts | 144° |
| 2026-05-05 03:28 | 33.20191 | -117.55162 | 17159 ft | 340 kts | 144° |
| 2026-05-05 03:28 | 33.18403 | -117.53280 | 16546 ft | 343 kts | 144° |
| 2026-05-05 03:28 | 33.16603 | -117.51385 | 15928 ft | 346 kts | 143° |
| 2026-05-05 03:29 | 33.14783 | -117.49471 | 15304 ft | 350 kts | 143° |
| 2026-05-05 03:29 | 33.12891 | -117.47672 | 14800 ft | 345 kts | 150° |
| 2026-05-05 03:29 | 33.10952 | -117.46078 | 14434 ft | 340 kts | 150° |
| 2026-05-05 03:29 | 33.09029 | -117.44474 | 14100 ft | 335 kts | 150° |
| 2026-05-05 03:30 | 33.07132 | -117.42878 | 13710 ft | 331 kts | 149° |
| 2026-05-05 03:30 | 33.05258 | -117.41295 | 13276 ft | 328 kts | 150° |
| 2026-05-05 03:30 | 33.03425 | -117.39760 | 12837 ft | 315 kts | 150° |
| 2026-05-05 03:30 | 33.01676 | -117.38295 | 12489 ft | 301 kts | 150° |
| 2026-05-05 03:31 | 32.99967 | -117.36863 | 12171 ft | 299 kts | 150° |
| 2026-05-05 03:31 | 32.98264 | -117.35437 | 11808 ft | 298 kts | 150° |
| 2026-05-05 03:31 | 32.96585 | -117.34031 | 11467 ft | 290 kts | 150° |
| 2026-05-05 03:31 | 32.94991 | -117.32697 | 11150 ft | 278 kts | 150° |
| 2026-05-05 03:32 | 32.93423 | -117.31384 | 10832 ft | 276 kts | 149° |
| 2026-05-05 03:32 | 32.91846 | -117.30067 | 10513 ft | 277 kts | 149° |
| 2026-05-05 03:32 | 32.90259 | -117.28747 | 10144 ft | 278 kts | 149° |
| 2026-05-05 03:32 | 32.88673 | -117.27427 | 9789 ft | 278 kts | 149° |
| 2026-05-05 03:33 | 32.87086 | -117.26108 | 9436 ft | 277 kts | 149° |
| 2026-05-05 03:33 | 32.85506 | -117.24795 | 9108 ft | 276 kts | 149° |
| 2026-05-05 03:33 | 32.83955 | -117.23507 | 8768 ft | 275 kts | 149° |
| 2026-05-05 03:33 | 32.82392 | -117.22201 | 8458 ft | 273 kts | 146° |
| 2026-05-05 03:34 | 32.81146 | -117.20483 | 8100 ft | 280 kts | 118° |
| 2026-05-05 03:34 | 32.80543 | -117.18284 | 7761 ft | 278 kts | 106° |
| 2026-05-05 03:34 | 32.80051 | -117.16095 | 7448 ft | 270 kts | 107° |
| 2026-05-05 03:34 | 32.79564 | -117.13927 | 7116 ft | 272 kts | 106° |
| 2026-05-05 03:35 | 32.79076 | -117.11748 | 6544 ft | 274 kts | 106° |
| 2026-05-05 03:35 | 32.78588 | -117.09569 | 5850 ft | 279 kts | 105° |
| 2026-05-05 03:35 | 32.78086 | -117.07327 | 5239 ft | 279 kts | 105° |
| 2026-05-05 03:35 | 32.77521 | -117.05209 | 5165 ft | 262 kts | 109° |
| 2026-05-05 03:36 | 32.77108 | -117.03100 | 5083 ft | 261 kts | 101° |
| 2026-05-05 03:36 | 32.76792 | -117.01006 | 5070 ft | 251 kts | 101° |
| 2026-05-05 03:36 | 32.76492 | -116.99009 | 5128 ft | 240 kts | 101° |
| 2026-05-05 03:36 | 32.76200 | -116.97061 | 5128 ft | 240 kts | 101° |
| 2026-05-05 03:37 | 32.75903 | -116.95120 | 5076 ft | 235 kts | 101° |
| 2026-05-05 03:37 | 32.75613 | -116.93238 | 5058 ft | 229 kts | 101° |
| 2026-05-05 03:37 | 32.75330 | -116.91399 | 5050 ft | 228 kts | 101° |
| 2026-05-05 03:37 | 32.74909 | -116.89598 | 5025 ft | 226 kts | 121° |
| 2026-05-05 03:38 | 32.73825 | -116.88308 | 5036 ft | 220 kts | 155° |
| 2026-05-05 03:38 | 32.72372 | -116.87945 | 5050 ft | 213 kts | 189° |
| 2026-05-05 03:38 | 32.70997 | -116.88489 | 5080 ft | 208 kts | 209° |
| 2026-05-05 03:38 | 32.69815 | -116.89431 | 5030 ft | 204 kts | 231° |
| 2026-05-05 03:39 | 32.69151 | -116.90894 | 5003 ft | 202 kts | 250° |
| 2026-05-05 03:39 | 32.68663 | -116.92463 | 4866 ft | 202 kts | 251° |
| 2026-05-05 03:39 | 32.68181 | -116.94039 | 4433 ft | 204 kts | 250° |
| 2026-05-05 03:39 | 32.67914 | -116.95663 | 4045 ft | 202 kts | 271° |
| 2026-05-05 03:40 | 32.68130 | -116.97261 | 3932 ft | 189 kts | 283° |
| 2026-05-05 03:40 | 32.68458 | -116.98719 | 3896 ft | 181 kts | 284° |
| 2026-05-05 03:40 | 32.68804 | -117.00154 | 3874 ft | 180 kts | 284° |
| 2026-05-05 03:40 | 32.69150 | -117.01585 | 3857 ft | 180 kts | 284° |
| 2026-05-05 03:41 | 32.69487 | -117.02982 | 3839 ft | 169 kts | 283° |
| 2026-05-05 03:41 | 32.69805 | -117.04288 | 3598 ft | 167 kts | 284° |
| 2026-05-05 03:41 | 32.70156 | -117.05638 | 3007 ft | 167 kts | 285° |
| 2026-05-05 03:41 | 32.70468 | -117.06865 | 2679 ft | 148 kts | 284° |
| 2026-05-05 03:42 | 32.70723 | -117.07998 | 2242 ft | 141 kts | 282° |
| 2026-05-05 03:42 | 32.70948 | -117.09139 | 1716 ft | 141 kts | 282° |
| 2026-05-05 03:42 | 32.71225 | -117.10209 | 1423 ft | 132 kts | 287° |
| 2026-05-05 03:42 | 32.71551 | -117.11265 | 1311 ft | 143 kts | 284° |
| 2026-05-05 03:43 | 32.71802 | -117.12409 | 1150 ft | 142 kts | 279° |
| 2026-05-05 03:43 | 32.72046 | -117.13535 | 938 ft | 139 kts | 284° |
| 2026-05-05 03:43 | 32.72322 | -117.14645 | 739 ft | 140 kts | 283° |
| 2026-05-05 03:43 | 32.72493 | -117.15384 | 563 ft | 141 kts | 284° |
| 2026-05-05 03:44 | 32.72854 | -117.16869 | 290 ft | 143 kts | 282° |
| 2026-05-05 03:44 | 32.73129 | -117.18016 | 47 ft | 142 kts | 285° |
| 2026-05-05 03:44 | 32.73370 | -117.19025 | 27 ft | 106 kts | 286° |
| 2026-05-05 03:44 | 32.73470 | -117.19437 | 27 ft | 51 kts | 286° |
| 2026-05-05 03:45 | 32.73531 | -117.19745 | 29 ft | 28 kts | 264° |
| 2026-05-05 03:45 | 32.73507 | -117.19825 | 28 ft | 1 kts | 224° |
| 2026-05-05 03:45 | 32.73468 | -117.19842 | 27 ft | 4 kts | 179° |
| 2026-05-05 03:45 | 32.73434 | -117.19796 | 31 ft | 11 kts | 103° |
| 2026-05-05 03:46 | 32.73430 | -117.19705 | 28 ft | 4 kts | 117° |
| 2026-05-05 03:46 | 32.73393 | -117.19663 | 25 ft | 9 kts | 146° |
| 2026-05-05 03:46 | 32.73369 | -117.19653 | 27 ft | 3 kts | 171° |
| 2026-05-05 03:46 | 32.73344 | -117.19648 | 24 ft | 0 kts | 171° |
| 2026-05-05 03:47 | 32.73335 | -117.19647 | 24 ft | 1 kts | 171° |